^^
Station Historical Data
Daily Summary for July 12, 2018 Units:  Both    English   Metric
« Previous Day
Next Day »
Daily Weekly Monthly Yearly Custom
  High: Low: Average:
Temperature: TemperatureF °F /  -17.8 °C 79.0 °F /  26.1 °C 89.5 °F /  31.9 °C
Dew Point: DewpointF °F /  -17.8 °C 65.0 °F /  18.3 °C 69.9 °F /  21.1 °C
Humidity: Humidity% 33% 55%
Wind Speed: WindSpeedMPHmph /  0km/h - 3.9mph /  6.3km/h
Wind Gust: WindSpeedGustMPHmph /  0km/h - -
Wind- - SSE
Pressure: PressureIn in /  0 hPa 29.87 in /  1011.4 hPa -
Precipitation: 0.00 in /  0 mm    
Historical Graphs
 
 
Tabular Data for July 12, 2018
Time Temperature Dew Point Pressure Wind Wind Speed Wind Gust Humidity Rainfall Rate (Hourly)
TemperatureF °F /  -17.8 °C DewpointF °F /  -17.8 °C PressureInin /  0hPa Calm     Humidity% HourlyPrecipInin /  0mm
00:04 85.8 °F /  29.9 °C 69.8 °F /  21 °C 29.94in /  1013.8hPa SSE 1.2mph /  1.9km/h 0.6mph /  1km/h 59% 0.00in /  0mm
00:09 85.7 °F /  29.8 °C 69.7 °F /  20.9 °C 29.94in /  1013.8hPa SE 3.5mph /  5.6km/h 1.8mph /  2.9km/h 59% 0.00in /  0mm
00:14 85.6 °F /  29.8 °C 69.6 °F /  20.9 °C 29.94in /  1013.8hPa SE 4.0mph /  6.4km/h 1.7mph /  2.7km/h 59% 0.00in /  0mm
00:18 85.6 °F /  29.8 °C 69.1 °F /  20.6 °C 29.94in /  1013.8hPa SSE 2.3mph /  3.7km/h 1.6mph /  2.6km/h 58% 0.00in /  0mm
00:24 85.6 °F /  29.8 °C 69.1 °F /  20.6 °C 29.94in /  1013.8hPa SSE 4.6mph /  7.4km/h 2.7mph /  4.3km/h 58% 0.00in /  0mm
00:29 85.6 °F /  29.8 °C 69.1 °F /  20.6 °C 29.94in /  1013.8hPa SSE 1.2mph /  1.9km/h 0.6mph /  1km/h 58% 0.00in /  0mm
00:34 85.5 °F /  29.7 °C 69.0 °F /  20.6 °C 29.94in /  1013.8hPa SE 2.3mph /  3.7km/h 0.6mph /  1km/h 58% 0.00in /  0mm
00:39 85.4 °F /  29.7 °C 68.9 °F /  20.5 °C 29.94in /  1013.8hPa SE 1.2mph /  1.9km/h 0.3mph /  0.5km/h 58% 0.00in /  0mm
00:44 85.3 °F /  29.6 °C 68.8 °F /  20.4 °C 29.94in /  1013.8hPa SE 2.3mph /  3.7km/h   58% 0.00in /  0mm
00:49 85.2 °F /  29.6 °C 68.8 °F /  20.4 °C 29.94in /  1013.8hPa SSE 2.3mph /  3.7km/h 1.3mph /  2.1km/h 58% 0.00in /  0mm
00:54 85.2 °F /  29.6 °C 68.8 °F /  20.4 °C 29.94in /  1013.8hPa SSE 2.3mph /  3.7km/h 0.8mph /  1.3km/h 58% 0.00in /  0mm
00:59 85.0 °F /  29.4 °C 69.1 °F /  20.6 °C 29.95in /  1014.1hPa Calm   0.4mph /  0.6km/h 59% 0.00in /  0mm
01:04 84.7 °F /  29.3 °C 68.3 °F /  20.2 °C 29.94in /  1013.8hPa SE 1.2mph /  1.9km/h 0.8mph /  1.3km/h 58% 0.00in /  0mm
01:09 84.7 °F /  29.3 °C 68.8 °F /  20.4 °C 29.94in /  1013.8hPa SE 1.2mph /  1.9km/h 1.0mph /  1.6km/h 59% 0.00in /  0mm
01:14 84.5 °F /  29.2 °C 68.6 °F /  20.3 °C 29.94in /  1013.8hPa SE 2.3mph /  3.7km/h 0.6mph /  1km/h 59% 0.00in /  0mm
01:19 84.4 °F /  29.1 °C 68.5 °F /  20.3 °C 29.94in /  1013.8hPa SE 1.2mph /  1.9km/h 0.5mph /  0.8km/h 59% 0.00in /  0mm
01:24 84.2 °F /  29 °C 68.8 °F /  20.4 °C 29.94in /  1013.8hPa SE 4.6mph /  7.4km/h 1.9mph /  3.1km/h 60% 0.00in /  0mm
01:29 84.1 °F /  28.9 °C 69.2 °F /  20.7 °C 29.94in /  1013.8hPa ESE 3.5mph /  5.6km/h 1.2mph /  1.9km/h 61% 0.00in /  0mm
01:34 83.9 °F /  28.8 °C 69.0 °F /  20.6 °C 29.94in /  1013.8hPa ESE 3.5mph /  5.6km/h 0.5mph /  0.8km/h 61% 0.00in /  0mm
01:39 83.8 °F /  28.8 °C 68.9 °F /  20.5 °C 29.94in /  1013.8hPa ESE 1.2mph /  1.9km/h 0.4mph /  0.6km/h 61% 0.00in /  0mm
01:44 83.8 °F /  28.8 °C 69.4 °F /  20.8 °C 29.93in /  1013.4hPa SE 9.2mph /  14.8km/h 3.4mph /  5.5km/h 62% 0.00in /  0mm
01:49 83.9 °F /  28.8 °C 69.5 °F /  20.8 °C 29.94in /  1013.8hPa SE 2.3mph /  3.7km/h 1.0mph /  1.6km/h 62% 0.00in /  0mm
01:54 83.8 °F /  28.8 °C 69.4 °F /  20.8 °C 29.93in /  1013.4hPa SSE 2.3mph /  3.7km/h 1.3mph /  2.1km/h 62% 0.00in /  0mm
01:59 83.8 °F /  28.8 °C 69.9 °F /  21.1 °C 29.93in /  1013.4hPa SE 5.8mph /  9.3km/h 2.7mph /  4.3km/h 63% 0.00in /  0mm
02:04 83.7 °F /  28.7 °C 69.8 °F /  21 °C 29.93in /  1013.4hPa East 2.3mph /  3.7km/h 2.2mph /  3.5km/h 63% 0.00in /  0mm
02:09 83.6 °F /  28.7 °C 70.1 °F /  21.2 °C 29.93in /  1013.4hPa SSE 2.3mph /  3.7km/h 1.3mph /  2.1km/h 64% 0.00in /  0mm
02:14 83.5 °F /  28.6 °C 70.0 °F /  21.1 °C 29.94in /  1013.8hPa SE 4.6mph /  7.4km/h 3.3mph /  5.3km/h 64% 0.00in /  0mm
02:19 83.4 °F /  28.6 °C 70.4 °F /  21.3 °C 29.94in /  1013.8hPa SE 3.0mph /  4.8km/h 2.7mph /  4.3km/h 65% 0.00in /  0mm
02:24 83.3 °F /  28.5 °C 70.3 °F /  21.3 °C 29.94in /  1013.8hPa SSE 9.2mph /  14.8km/h 2.9mph /  4.7km/h 65% 0.00in /  0mm
02:29 83.3 °F /  28.5 °C 70.3 °F /  21.3 °C 29.94in /  1013.8hPa SE 2.3mph /  3.7km/h 1.8mph /  2.9km/h 65% 0.00in /  0mm
02:34 83.2 °F /  28.4 °C 70.2 °F /  21.2 °C 29.93in /  1013.4hPa SE 2.3mph /  3.7km/h 2.1mph /  3.4km/h 65% 0.00in /  0mm
02:39 83.2 °F /  28.4 °C 70.7 °F /  21.5 °C 29.93in /  1013.4hPa SE 5.0mph /  8km/h 1.6mph /  2.6km/h 66% 0.00in /  0mm
02:44 83.0 °F /  28.3 °C 70.5 °F /  21.4 °C 29.93in /  1013.4hPa East 3.5mph /  5.6km/h 0.8mph /  1.3km/h 66% 0.00in /  0mm
02:49 83.0 °F /  28.3 °C 70.5 °F /  21.4 °C 29.93in /  1013.4hPa SE 6.9mph /  11.1km/h 2.0mph /  3.2km/h 66% 0.00in /  0mm
02:54 82.9 °F /  28.3 °C 70.4 °F /  21.3 °C 29.93in /  1013.4hPa SE 4.6mph /  7.4km/h 4.2mph /  6.8km/h 66% 0.00in /  0mm
02:59 82.8 °F /  28.2 °C 70.3 °F /  21.3 °C 29.93in /  1013.4hPa SE 8.0mph /  12.9km/h 1.1mph /  1.8km/h 66% 0.00in /  0mm
03:04 82.7 °F /  28.2 °C 70.2 °F /  21.2 °C 29.93in /  1013.4hPa SE 4.6mph /  7.4km/h 1.3mph /  2.1km/h 66% 0.00in /  0mm
03:09 82.7 °F /  28.2 °C 70.6 °F /  21.4 °C 29.93in /  1013.4hPa SE 2.3mph /  3.7km/h 1.2mph /  1.9km/h 67% 0.00in /  0mm
03:14 82.5 °F /  28.1 °C 70.4 °F /  21.3 °C 29.93in /  1013.4hPa ESE 9.2mph /  14.8km/h 1.1mph /  1.8km/h 67% 0.00in /  0mm
03:19 82.4 °F /  28 °C 70.3 °F /  21.3 °C 29.93in /  1013.4hPa SE 1.2mph /  1.9km/h 2.6mph /  4.2km/h 67% 0.00in /  0mm
03:24 82.3 °F /  27.9 °C 70.7 °F /  21.5 °C 29.93in /  1013.4hPa SE 8.1mph /  13km/h 2.2mph /  3.5km/h 68% 0.00in /  0mm
03:29 82.3 °F /  27.9 °C 70.7 °F /  21.5 °C 29.93in /  1013.4hPa SSE 4.6mph /  7.4km/h 2.2mph /  3.5km/h 68% 0.00in /  0mm
03:34 82.2 °F /  27.9 °C 70.6 °F /  21.4 °C 29.93in /  1013.4hPa SE 3.5mph /  5.6km/h 2.8mph /  4.5km/h 68% 0.00in /  0mm
03:39 82.0 °F /  27.8 °C 70.4 °F /  21.3 °C 29.92in /  1013.1hPa ESE 6.9mph /  11.1km/h 2.7mph /  4.3km/h 68% 0.00in /  0mm
03:44 82.0 °F /  27.8 °C 70.4 °F /  21.3 °C 29.92in /  1013.1hPa East 8.1mph /  13km/h 3.6mph /  5.8km/h 68% 0.00in /  0mm
03:49 82.0 °F /  27.8 °C 70.8 °F /  21.6 °C 29.92in /  1013.1hPa ESE 4.6mph /  7.4km/h 1.2mph /  1.9km/h 69% 0.00in /  0mm
03:54 81.8 °F /  27.7 °C 70.6 °F /  21.4 °C 29.92in /  1013.1hPa SE 3.5mph /  5.6km/h 4.0mph /  6.4km/h 69% 0.00in /  0mm
03:59 81.7 °F /  27.6 °C 70.5 °F /  21.4 °C 29.92in /  1013.1hPa SE 3.5mph /  5.6km/h 1.0mph /  1.6km/h 69% 0.00in /  0mm
04:04 81.5 °F /  27.5 °C 70.8 °F /  21.6 °C 29.92in /  1013.1hPa SSE 6.0mph /  9.7km/h 2.2mph /  3.5km/h 70% 0.00in /  0mm
04:09 81.4 °F /  27.4 °C 70.7 °F /  21.5 °C 29.92in /  1013.1hPa SE 5.8mph /  9.3km/h 2.2mph /  3.5km/h 70% 0.00in /  0mm
04:14 81.4 °F /  27.4 °C 70.7 °F /  21.5 °C 29.92in /  1013.1hPa SE 4.6mph /  7.4km/h 2.1mph /  3.4km/h 70% 0.00in /  0mm
04:19 81.3 °F /  27.4 °C 70.6 °F /  21.4 °C 29.92in /  1013.1hPa Calm     70% 0.00in /  0mm
04:24 81.2 °F /  27.3 °C 70.5 °F /  21.4 °C 29.92in /  1013.1hPa East 2.3mph /  3.7km/h 1.1mph /  1.8km/h 70% 0.00in /  0mm
04:29 81.1 °F /  27.3 °C 70.8 °F /  21.6 °C 29.92in /  1013.1hPa SSE 9.2mph /  14.8km/h 1.8mph /  2.9km/h 71% 0.00in /  0mm
04:34 81.1 °F /  27.3 °C 70.8 °F /  21.6 °C 29.92in /  1013.1hPa SSE 2.3mph /  3.7km/h 1.3mph /  2.1km/h 71% 0.00in /  0mm
04:39 81.0 °F /  27.2 °C 70.7 °F /  21.5 °C 29.92in /  1013.1hPa SE 6.9mph /  11.1km/h 1.5mph /  2.4km/h 71% 0.00in /  0mm
04:44 81.0 °F /  27.2 °C 70.7 °F /  21.5 °C 29.92in /  1013.1hPa SE 5.8mph /  9.3km/h 2.4mph /  3.9km/h 71% 0.00in /  0mm
04:49 80.9 °F /  27.2 °C 70.6 °F /  21.4 °C 29.91in /  1012.8hPa SE 9.2mph /  14.8km/h 2.1mph /  3.4km/h 71% 0.00in /  0mm
04:54 80.8 °F /  27.1 °C 70.9 °F /  21.6 °C 29.92in /  1013.1hPa SE 3.5mph /  5.6km/h 1.2mph /  1.9km/h 72% 0.00in /  0mm
04:58 80.7 °F /  27.1 °C 70.8 °F /  21.6 °C 29.92in /  1013.1hPa SE 2.0mph /  3.2km/h 1.2mph /  1.9km/h 72% 0.00in /  0mm
05:04 80.6 °F /  27 °C 70.7 °F /  21.5 °C 29.92in /  1013.1hPa SSE 6.9mph /  11.1km/h 2.6mph /  4.2km/h 72% 0.00in /  0mm
05:09 80.5 °F /  26.9 °C 71.0 °F /  21.7 °C 29.92in /  1013.1hPa SE 3.5mph /  5.6km/h 2.0mph /  3.2km/h 73% 0.00in /  0mm
05:14 80.4 °F /  26.9 °C 70.9 °F /  21.6 °C 29.92in /  1013.1hPa SSE 6.9mph /  11.1km/h 2.0mph /  3.2km/h 73% 0.00in /  0mm
05:19 80.3 °F /  26.8 °C 70.9 °F /  21.6 °C 29.92in /  1013.1hPa SE 1.2mph /  1.9km/h 3.7mph /  6km/h 73% 0.00in /  0mm
05:24 80.2 °F /  26.8 °C 70.8 °F /  21.6 °C 29.92in /  1013.1hPa SE 3.5mph /  5.6km/h 2.2mph /  3.5km/h 73% 0.00in /  0mm
05:29 80.2 °F /  26.8 °C 71.2 °F /  21.8 °C 29.92in /  1013.1hPa SE 7.0mph /  11.3km/h 2.9mph /  4.7km/h 74% 0.00in /  0mm
05:34 80.1 °F /  26.7 °C 71.1 °F /  21.7 °C 29.93in /  1013.4hPa Calm   0.8mph /  1.3km/h 74% 0.00in /  0mm
05:39 80.0 °F /  26.7 °C 71.0 °F /  21.7 °C 29.93in /  1013.4hPa SSE 3.5mph /  5.6km/h 3.0mph /  4.8km/h 74% 0.00in /  0mm
05:44 79.9 °F /  26.6 °C 70.9 °F /  21.6 °C 29.93in /  1013.4hPa ESE 3.5mph /  5.6km/h 0.9mph /  1.4km/h 74% 0.00in /  0mm
05:49 79.8 °F /  26.6 °C 71.2 °F /  21.8 °C 29.93in /  1013.4hPa SSE 8.1mph /  13km/h 1.8mph /  2.9km/h 75% 0.00in /  0mm
05:54 79.7 °F /  26.5 °C 71.1 °F /  21.7 °C 29.93in /  1013.4hPa SE 3.5mph /  5.6km/h 1.6mph /  2.6km/h 75% 0.00in /  0mm
05:59 79.6 °F /  26.4 °C 71.0 °F /  21.7 °C 29.93in /  1013.4hPa ESE 6.9mph /  11.1km/h 2.0mph /  3.2km/h 75% 0.00in /  0mm
06:04 79.5 °F /  26.4 °C 70.9 °F /  21.6 °C 29.93in /  1013.4hPa SSE 2.3mph /  3.7km/h 1.7mph /  2.7km/h 75% 0.00in /  0mm
06:09 79.4 °F /  26.3 °C 71.2 °F /  21.8 °C 29.93in /  1013.4hPa ESE 4.6mph /  7.4km/h 2.0mph /  3.2km/h 76% 0.00in /  0mm
06:14 79.3 °F /  26.3 °C 71.1 °F /  21.7 °C 29.93in /  1013.4hPa SSE 5.8mph /  9.3km/h 0.1mph /  0.2km/h 76% 0.00in /  0mm
06:19 79.3 °F /  26.3 °C 71.1 °F /  21.7 °C 29.93in /  1013.4hPa SSE 2.3mph /  3.7km/h 2.0mph /  3.2km/h 76% 0.00in /  0mm
06:24 79.1 °F /  26.2 °C 70.9 °F /  21.6 °C 29.93in /  1013.4hPa South 3.5mph /  5.6km/h 2.9mph /  4.7km/h 76% 0.00in /  0mm
06:29 79.1 °F /  26.2 °C 70.9 °F /  21.6 °C 29.93in /  1013.4hPa ESE 2.3mph /  3.7km/h 2.4mph /  3.9km/h 76% 0.00in /  0mm
06:34 79.1 °F /  26.2 °C 71.3 °F /  21.8 °C 29.93in /  1013.4hPa SSE 2.3mph /  3.7km/h 1.6mph /  2.6km/h 77% 0.00in /  0mm
06:39 79.1 °F /  26.2 °C 71.3 °F /  21.8 °C 29.93in /  1013.4hPa SE 3.5mph /  5.6km/h 0.8mph /  1.3km/h 77% 0.00in /  0mm
06:44 79.0 °F /  26.1 °C 71.2 °F /  21.8 °C 29.93in /  1013.4hPa SE 3.5mph /  5.6km/h 0.7mph /  1.1km/h 77% 0.00in /  0mm
06:49 79.0 °F /  26.1 °C 71.2 °F /  21.8 °C 29.93in /  1013.4hPa South 6.9mph /  11.1km/h 3.0mph /  4.8km/h 77% 0.00in /  0mm
06:54 79.0 °F /  26.1 °C 71.2 °F /  21.8 °C 29.93in /  1013.4hPa SSE 4.0mph /  6.4km/h 1.1mph /  1.8km/h 77% 0.00in /  0mm
06:59 79.0 °F /  26.1 °C 71.2 °F /  21.8 °C 29.93in /  1013.4hPa ESE 2.3mph /  3.7km/h 1.1mph /  1.8km/h 77% 0.00in /  0mm
07:04 79.0 °F /  26.1 °C 71.2 °F /  21.8 °C 29.93in /  1013.4hPa East 2.3mph /  3.7km/h 3.5mph /  5.6km/h 77% 0.00in /  0mm
07:09 79.1 °F /  26.2 °C 71.3 °F /  21.8 °C 29.93in /  1013.4hPa SSE 3.5mph /  5.6km/h 2.0mph /  3.2km/h 77% 0.00in /  0mm
07:14 79.2 °F /  26.2 °C 71.4 °F /  21.9 °C 29.93in /  1013.4hPa SSE 2.3mph /  3.7km/h 1.9mph /  3.1km/h 77% 0.00in /  0mm
07:19 79.3 °F /  26.3 °C 71.5 °F /  21.9 °C 29.93in /  1013.4hPa ESE 4.6mph /  7.4km/h 2.4mph /  3.9km/h 77% 0.00in /  0mm
07:24 79.4 °F /  26.3 °C 71.6 °F /  22 °C 29.94in /  1013.8hPa SE 2.3mph /  3.7km/h 1.2mph /  1.9km/h 77% 0.00in /  0mm
07:29 79.6 °F /  26.4 °C 71.8 °F /  22.1 °C 29.94in /  1013.8hPa SSW 8.1mph /  13km/h 3.1mph /  5km/h 77% 0.00in /  0mm
07:34 79.7 °F /  26.5 °C 71.5 °F /  21.9 °C 29.94in /  1013.8hPa SE 5.8mph /  9.3km/h 2.1mph /  3.4km/h 76% 0.00in /  0mm
07:39 79.8 °F /  26.6 °C 71.9 °F /  22.2 °C 29.94in /  1013.8hPa SE 3.5mph /  5.6km/h 1.5mph /  2.4km/h 77% 0.00in /  0mm
07:44 80.1 °F /  26.7 °C 71.8 °F /  22.1 °C 29.94in /  1013.8hPa SSE 4.6mph /  7.4km/h 2.0mph /  3.2km/h 76% 0.00in /  0mm
07:49 80.2 °F /  26.8 °C 71.9 °F /  22.2 °C 29.94in /  1013.8hPa SSE 3.5mph /  5.6km/h 1.5mph /  2.4km/h 76% 0.00in /  0mm
07:54 80.4 °F /  26.9 °C 71.7 °F /  22.1 °C 29.94in /  1013.8hPa ENE 3.5mph /  5.6km/h 2.0mph /  3.2km/h 75% 0.00in /  0mm
07:59 80.6 °F /  27 °C 71.9 °F /  22.2 °C 29.94in /  1013.8hPa SE 4.6mph /  7.4km/h 3.2mph /  5.1km/h 75% 0.00in /  0mm
08:04 80.8 °F /  27.1 °C 71.7 °F /  22.1 °C 29.94in /  1013.8hPa East 3.5mph /  5.6km/h 2.9mph /  4.7km/h 74% 0.00in /  0mm
08:09 81.0 °F /  27.2 °C 71.9 °F /  22.2 °C 29.94in /  1013.8hPa SSW 3.5mph /  5.6km/h 2.1mph /  3.4km/h 74% 0.00in /  0mm
08:14 81.2 °F /  27.3 °C 71.7 °F /  22.1 °C 29.95in /  1014.1hPa SSW 4.6mph /  7.4km/h 3.2mph /  5.1km/h 73% 0.00in /  0mm
08:19 81.5 °F /  27.5 °C 72.4 °F /  22.4 °C 29.94in /  1013.8hPa South 4.0mph /  6.4km/h 2.5mph /  4km/h 74% 0.00in /  0mm
08:24 81.7 °F /  27.6 °C 72.2 °F /  22.3 °C 29.94in /  1013.8hPa SE 2.3mph /  3.7km/h 1.8mph /  2.9km/h 73% 0.00in /  0mm
08:29 81.9 °F /  27.7 °C 72.4 °F /  22.4 °C 29.94in /  1013.8hPa South 2.0mph /  3.2km/h 0.7mph /  1.1km/h 73% 0.00in /  0mm
08:34 82.3 °F /  27.9 °C 72.0 °F /  22.2 °C 29.95in /  1014.1hPa SSE 4.6mph /  7.4km/h 4.4mph /  7.1km/h 71% 0.00in /  0mm
08:39 82.6 °F /  28.1 °C 72.2 °F /  22.3 °C 29.95in /  1014.1hPa South 4.6mph /  7.4km/h 3.1mph /  5km/h 71% 0.00in /  0mm
08:44 82.9 °F /  28.3 °C 72.9 °F /  22.7 °C 29.94in /  1013.8hPa South 2.3mph /  3.7km/h 1.7mph /  2.7km/h 72% 0.00in /  0mm
08:49 83.1 °F /  28.4 °C 72.3 °F /  22.4 °C 29.95in /  1014.1hPa South 4.0mph /  6.4km/h 2.1mph /  3.4km/h 70% 0.00in /  0mm
08:54 83.5 °F /  28.6 °C 73.1 °F /  22.8 °C 29.95in /  1014.1hPa SSE 1.2mph /  1.9km/h 2.4mph /  3.9km/h 71% 0.00in /  0mm
08:59 83.7 °F /  28.7 °C 72.4 °F /  22.4 °C 29.95in /  1014.1hPa SE 4.6mph /  7.4km/h 2.7mph /  4.3km/h 69% 0.00in /  0mm
09:04 84.1 °F /  28.9 °C 73.3 °F /  22.9 °C 29.95in /  1014.1hPa East 3.5mph /  5.6km/h 0.6mph /  1km/h 70% 0.00in /  0mm
09:09 84.5 °F /  29.2 °C 73.2 °F /  22.9 °C 29.95in /  1014.1hPa SSW 2.3mph /  3.7km/h 0.3mph /  0.5km/h 69% 0.00in /  0mm
09:14 85.0 °F /  29.4 °C 73.3 °F /  22.9 °C 29.95in /  1014.1hPa ESE 2.3mph /  3.7km/h 1.3mph /  2.1km/h 68% 0.00in /  0mm
09:19 85.4 °F /  29.7 °C 73.2 °F /  22.9 °C 29.95in /  1014.1hPa South 2.3mph /  3.7km/h 0.9mph /  1.4km/h 67% 0.00in /  0mm
09:24 85.7 °F /  29.8 °C 73.5 °F /  23.1 °C 29.95in /  1014.1hPa South 1.2mph /  1.9km/h 0.2mph /  0.3km/h 67% 0.00in /  0mm
09:29 86.3 °F /  30.2 °C 73.6 °F /  23.1 °C 29.95in /  1014.1hPa ESE 2.3mph /  3.7km/h 0.3mph /  0.5km/h 66% 0.00in /  0mm
09:34 86.6 °F /  30.3 °C 73.9 °F /  23.3 °C 29.95in /  1014.1hPa SSW 3.5mph /  5.6km/h 1.3mph /  2.1km/h 66% 0.00in /  0mm
09:39 87.0 °F /  30.6 °C 73.8 °F /  23.2 °C 29.95in /  1014.1hPa SSW 1.2mph /  1.9km/h 0.5mph /  0.8km/h 65% 0.00in /  0mm
09:44 87.8 °F /  31 °C 74.1 °F /  23.4 °C 29.95in /  1014.1hPa SW 3.5mph /  5.6km/h 1.5mph /  2.4km/h 64% 0.00in /  0mm
09:49 88.5 °F /  31.4 °C 73.3 °F /  22.9 °C 29.95in /  1014.1hPa South 2.3mph /  3.7km/h 0.5mph /  0.8km/h 61% 0.00in /  0mm
09:54 89.1 °F /  31.7 °C 73.9 °F /  23.3 °C 29.95in /  1014.1hPa South 1.2mph /  1.9km/h   61% 0.00in /  0mm
09:59 89.9 °F /  32.2 °C 73.7 °F /  23.2 °C 29.95in /  1014.1hPa West 2.3mph /  3.7km/h 1.5mph /  2.4km/h 59% 0.00in /  0mm
10:04 90.4 °F /  32.4 °C 73.6 °F /  23.1 °C 29.96in /  1014.4hPa SW 3.5mph /  5.6km/h 1.8mph /  2.9km/h 58% 0.00in /  0mm
10:09 91.0 °F /  32.8 °C 74.2 °F /  23.4 °C 29.96in /  1014.4hPa WSW 1.2mph /  1.9km/h 0.4mph /  0.6km/h 58% 0.00in /  0mm
10:14 91.5 °F /  33.1 °C 73.6 °F /  23.1 °C 29.96in /  1014.4hPa SSW 3.5mph /  5.6km/h 0.6mph /  1km/h 56% 0.00in /  0mm
10:19 91.6 °F /  33.1 °C 73.7 °F /  23.2 °C 29.96in /  1014.4hPa South 3.5mph /  5.6km/h 1.4mph /  2.3km/h 56% 0.00in /  0mm
10:24 91.9 °F /  33.3 °C 75.0 °F /  23.9 °C 29.96in /  1014.4hPa South 1.2mph /  1.9km/h 0.1mph /  0.2km/h 58% 0.00in /  0mm
10:29 92.7 °F /  33.7 °C 74.2 °F /  23.4 °C 29.96in /  1014.4hPa SSW 1.2mph /  1.9km/h 0.2mph /  0.3km/h 55% 0.00in /  0mm
10:34 93.3 °F /  34.1 °C 74.2 °F /  23.4 °C 29.96in /  1014.4hPa Calm   0.2mph /  0.3km/h 54% 0.00in /  0mm
10:38 93.8 °F /  34.3 °C 72.9 °F /  22.7 °C 29.96in /  1014.4hPa ESE 4.6mph /  7.4km/h 2.1mph /  3.4km/h 51% 0.00in /  0mm
10:44 94.0 °F /  34.4 °C 73.1 °F /  22.8 °C 29.96in /  1014.4hPa West 4.6mph /  7.4km/h 2.3mph /  3.7km/h 51% 0.00in /  0mm
10:49 94.2 °F /  34.6 °C 73.9 °F /  23.3 °C 29.96in /  1014.4hPa West 2.3mph /  3.7km/h 0.7mph /  1.1km/h 52% 0.00in /  0mm
10:54 94.8 °F /  34.9 °C 73.3 °F /  22.9 °C 29.96in /  1014.4hPa WNW 3.5mph /  5.6km/h 0.4mph /  0.6km/h 50% 0.00in /  0mm
10:59 95.3 °F /  35.2 °C 73.7 °F /  23.2 °C 29.96in /  1014.4hPa SSW 3.5mph /  5.6km/h 2.2mph /  3.5km/h 50% 0.00in /  0mm
11:04 95.6 °F /  35.3 °C 74.0 °F /  23.3 °C 29.96in /  1014.4hPa North 2.3mph /  3.7km/h 0.8mph /  1.3km/h 50% 0.00in /  0mm
11:09 95.6 °F /  35.3 °C 74.0 °F /  23.3 °C 29.96in /  1014.4hPa North 2.3mph /  3.7km/h 0.7mph /  1.1km/h 50% 0.00in /  0mm
11:14 95.5 °F /  35.3 °C 73.3 °F /  22.9 °C 29.96in /  1014.4hPa South 2.3mph /  3.7km/h 1.3mph /  2.1km/h 49% 0.00in /  0mm
11:19 95.6 °F /  35.3 °C 73.4 °F /  23 °C 29.96in /  1014.4hPa SW 2.3mph /  3.7km/h 1.3mph /  2.1km/h 49% 0.00in /  0mm
11:24 96.2 °F /  35.7 °C 73.9 °F /  23.3 °C 29.96in /  1014.4hPa SW 1.2mph /  1.9km/h 0.1mph /  0.2km/h 49% 0.00in /  0mm
11:29 96.8 °F /  36 °C 73.2 °F /  22.9 °C 29.96in /  1014.4hPa SSW 3.5mph /  5.6km/h 0.9mph /  1.4km/h 47% 0.00in /  0mm
11:34 97.1 °F /  36.2 °C 72.9 °F /  22.7 °C 29.96in /  1014.4hPa SSW 1.2mph /  1.9km/h 0.6mph /  1km/h 46% 0.00in /  0mm
11:39 97.0 °F /  36.1 °C 71.5 °F /  21.9 °C 29.96in /  1014.4hPa SW 2.3mph /  3.7km/h 0.9mph /  1.4km/h 44% 0.00in /  0mm
11:44 96.6 °F /  35.9 °C 73.1 °F /  22.8 °C 29.96in /  1014.4hPa NW 2.3mph /  3.7km/h 1.1mph /  1.8km/h 47% 0.00in /  0mm
11:49 96.9 °F /  36.1 °C 71.4 °F /  21.9 °C 29.96in /  1014.4hPa SW 3.5mph /  5.6km/h 1.7mph /  2.7km/h 44% 0.00in /  0mm
11:54 96.7 °F /  35.9 °C 71.2 °F /  21.8 °C 29.96in /  1014.4hPa SW 3.5mph /  5.6km/h 0.6mph /  1km/h 44% 0.00in /  0mm
11:59 96.8 °F /  36 °C 70.6 °F /  21.4 °C 29.96in /  1014.4hPa South 3.5mph /  5.6km/h 0.3mph /  0.5km/h 43% 0.00in /  0mm
12:04 97.4 °F /  36.3 °C 71.8 °F /  22.1 °C 29.96in /  1014.4hPa SSW 2.3mph /  3.7km/h 2.8mph /  4.5km/h 44% 0.00in /  0mm
12:09 97.8 °F /  36.6 °C 71.5 °F /  21.9 °C 29.96in /  1014.4hPa SW 3.5mph /  5.6km/h 1.8mph /  2.9km/h 43% 0.00in /  0mm
12:14 97.9 °F /  36.6 °C 70.2 °F /  21.2 °C 29.96in /  1014.4hPa South 3.5mph /  5.6km/h 2.3mph /  3.7km/h 41% 0.00in /  0mm
12:19 97.4 °F /  36.3 °C 71.2 °F /  21.8 °C 29.96in /  1014.4hPa South 5.0mph /  8km/h 1.4mph /  2.3km/h 43% 0.00in /  0mm
12:24 96.8 °F /  36 °C 71.3 °F /  21.8 °C 29.96in /  1014.4hPa South 2.3mph /  3.7km/h   44% 0.00in /  0mm
12:29 97.0 °F /  36.1 °C 70.1 °F /  21.2 °C 29.95in /  1014.1hPa SSW 3.5mph /  5.6km/h 0.3mph /  0.5km/h 42% 0.00in /  0mm
12:34 97.1 °F /  36.2 °C 71.6 °F /  22 °C 29.95in /  1014.1hPa SE 1.2mph /  1.9km/h 0.3mph /  0.5km/h 44% 0.00in /  0mm
12:39 96.8 °F /  36 °C 71.3 °F /  21.8 °C 29.95in /  1014.1hPa WSW 1.2mph /  1.9km/h 1.2mph /  1.9km/h 44% 0.00in /  0mm
12:44 97.1 °F /  36.2 °C 70.2 °F /  21.2 °C 29.95in /  1014.1hPa SW 6.9mph /  11.1km/h 1.7mph /  2.7km/h 42% 0.00in /  0mm
12:49 97.9 °F /  36.6 °C 72.3 °F /  22.4 °C 29.95in /  1014.1hPa SW 1.0mph /  1.6km/h 0.2mph /  0.3km/h 44% 0.00in /  0mm
12:54 98.7 °F /  37.1 °C 73.0 °F /  22.8 °C 29.95in /  1014.1hPa SSW 3.0mph /  4.8km/h 0.4mph /  0.6km/h 44% 0.00in /  0mm
12:59 99.1 °F /  37.3 °C 71.3 °F /  21.8 °C 29.95in /  1014.1hPa West 1.2mph /  1.9km/h 0.5mph /  0.8km/h 41% 0.00in /  0mm
13:04 99.4 °F /  37.4 °C 70.8 °F /  21.6 °C 29.95in /  1014.1hPa WSW 2.0mph /  3.2km/h 1.2mph /  1.9km/h 40% 0.00in /  0mm
13:09 99.2 °F /  37.3 °C 69.9 °F /  21.1 °C 29.95in /  1014.1hPa SSW 2.3mph /  3.7km/h 0.9mph /  1.4km/h 39% 0.00in /  0mm
13:14 98.5 °F /  36.9 °C 69.3 °F /  20.7 °C 29.95in /  1014.1hPa SSE 3.5mph /  5.6km/h 2.4mph /  3.9km/h 39% 0.00in /  0mm
13:19 97.4 °F /  36.3 °C 69.8 °F /  21 °C 29.95in /  1014.1hPa WSW 2.3mph /  3.7km/h 0.2mph /  0.3km/h 41% 0.00in /  0mm
13:24 97.2 °F /  36.2 °C 71.0 °F /  21.7 °C 29.95in /  1014.1hPa Calm     43% 0.00in /  0mm
13:29 97.4 °F /  36.3 °C 70.5 °F /  21.4 °C 29.95in /  1014.1hPa SSW 2.3mph /  3.7km/h 0.6mph /  1km/h 42% 0.00in /  0mm
13:34 97.7 °F /  36.5 °C 69.3 °F /  20.7 °C 29.94in /  1013.8hPa SSE 4.0mph /  6.4km/h 2.9mph /  4.7km/h 40% 0.00in /  0mm
13:39 98.2 °F /  36.8 °C 69.0 °F /  20.6 °C 29.94in /  1013.8hPa NE 6.9mph /  11.1km/h 3.5mph /  5.6km/h 39% 0.00in /  0mm
13:44 98.7 °F /  37.1 °C 67.9 °F /  19.9 °C 29.94in /  1013.8hPa SE 10.4mph /  16.7km/h 2.8mph /  4.5km/h 37% 0.00in /  0mm
13:49 99.0 °F /  37.2 °C 69.0 °F /  20.6 °C 29.94in /  1013.8hPa SSE 4.0mph /  6.4km/h 3.3mph /  5.3km/h 38% 0.00in /  0mm
13:54 98.7 °F /  37.1 °C 67.9 °F /  19.9 °C 29.94in /  1013.8hPa SSW 4.0mph /  6.4km/h 4.5mph /  7.2km/h 37% 0.00in /  0mm
13:59 98.8 °F /  37.1 °C 68.0 °F /  20 °C 29.94in /  1013.8hPa SE 10.4mph /  16.7km/h 5.3mph /  8.5km/h 37% 0.00in /  0mm
14:04 98.8 °F /  37.1 °C 68.8 °F /  20.4 °C 29.94in /  1013.8hPa South 5.8mph /  9.3km/h 5.3mph /  8.5km/h 38% 0.00in /  0mm
14:09 99.0 °F /  37.2 °C 68.2 °F /  20.1 °C 29.94in /  1013.8hPa South 6.9mph /  11.1km/h 4.4mph /  7.1km/h 37% 0.00in /  0mm
14:14 99.2 °F /  37.3 °C 69.1 °F /  20.6 °C 29.93in /  1013.4hPa East 4.6mph /  7.4km/h 1.6mph /  2.6km/h 38% 0.00in /  0mm
14:19 99.4 °F /  37.4 °C 69.3 °F /  20.7 °C 29.94in /  1013.8hPa SE 3.5mph /  5.6km/h 2.3mph /  3.7km/h 38% 0.00in /  0mm
14:24 99.4 °F /  37.4 °C 67.7 °F /  19.8 °C 29.93in /  1013.4hPa South 8.1mph /  13km/h 3.6mph /  5.8km/h 36% 0.00in /  0mm
14:29 98.7 °F /  37.1 °C 67.1 °F /  19.5 °C 29.93in /  1013.4hPa SE 5.8mph /  9.3km/h 2.9mph /  4.7km/h 36% 0.00in /  0mm
14:34 98.7 °F /  37.1 °C 67.9 °F /  19.9 °C 29.93in /  1013.4hPa SE 5.8mph /  9.3km/h 2.5mph /  4km/h 37% 0.00in /  0mm
14:39 99.2 °F /  37.3 °C 66.7 °F /  19.3 °C 29.93in /  1013.4hPa South 8.1mph /  13km/h 3.6mph /  5.8km/h 35% 0.00in /  0mm
14:44 99.0 °F /  37.2 °C 66.6 °F /  19.2 °C 29.93in /  1013.4hPa East 4.6mph /  7.4km/h 5.6mph /  9km/h 35% 0.00in /  0mm
14:49 99.3 °F /  37.4 °C 69.2 °F /  20.7 °C 29.93in /  1013.4hPa South 8.1mph /  13km/h 3.3mph /  5.3km/h 38% 0.00in /  0mm
14:54 98.9 °F /  37.2 °C 67.3 °F /  19.6 °C 29.93in /  1013.4hPa SSW 4.6mph /  7.4km/h 2.3mph /  3.7km/h 36% 0.00in /  0mm
14:59 99.4 °F /  37.4 °C 66.9 °F /  19.4 °C 29.92in /  1013.1hPa WSW 3.5mph /  5.6km/h 1.5mph /  2.4km/h 35% 0.00in /  0mm
15:04 100.0 °F /  37.8 °C 68.3 °F /  20.2 °C 29.92in /  1013.1hPa SSE 3.5mph /  5.6km/h 2.7mph /  4.3km/h 36% 0.00in /  0mm
15:09 100.3 °F /  37.9 °C 68.5 °F /  20.3 °C 29.92in /  1013.1hPa SSW 5.8mph /  9.3km/h 4.0mph /  6.4km/h 36% 0.00in /  0mm
15:14 100.5 °F /  38.1 °C 68.7 °F /  20.4 °C 29.92in /  1013.1hPa SE 5.0mph /  8km/h 0.8mph /  1.3km/h 36% 0.00in /  0mm
15:19 100.5 °F /  38.1 °C 68.7 °F /  20.4 °C 29.92in /  1013.1hPa ESE 6.9mph /  11.1km/h 4.0mph /  6.4km/h 36% 0.00in /  0mm
15:24 100.1 °F /  37.8 °C 68.3 °F /  20.2 °C 29.91in /  1012.8hPa ESE 9.2mph /  14.8km/h 4.2mph /  6.8km/h 36% 0.00in /  0mm
15:28 100.2 °F /  37.9 °C 68.4 °F /  20.2 °C 29.91in /  1012.8hPa SE 2.3mph /  3.7km/h 0.8mph /  1.3km/h 36% 0.00in /  0mm
15:34 100.5 °F /  38.1 °C 67.9 °F /  19.9 °C 29.91in /  1012.8hPa South 4.6mph /  7.4km/h 2.4mph /  3.9km/h 35% 0.00in /  0mm
15:39 100.6 °F /  38.1 °C 68.0 °F /  20 °C 29.91in /  1012.8hPa South 3.5mph /  5.6km/h 1.5mph /  2.4km/h 35% 0.00in /  0mm
15:39 100.6 °F /  38.1 °C 68.0 °F /  20 °C 29.91in /  1012.8hPa SSW 5.0mph /  8km/h 2.2mph /  3.5km/h 35% 0.00in /  0mm
15:44 100.6 °F /  38.1 °C 68.0 °F /  20 °C 29.91in /  1012.8hPa SSW 3.5mph /  5.6km/h 2.3mph /  3.7km/h 35% 0.00in /  0mm
15:47 100.7 °F /  38.2 °C 67.2 °F /  19.6 °C 29.91in /  1012.8hPa ESE 6.9mph /  11.1km/h 1.5mph /  2.4km/h 34% 0.00in /  0mm
15:49 100.7 °F /  38.2 °C 66.3 °F /  19.1 °C 29.91in /  1012.8hPa South 6.0mph /  9.7km/h 2.2mph /  3.5km/h 33% 0.00in /  0mm
15:54 100.9 °F /  38.3 °C 68.2 °F /  20.1 °C 29.91in /  1012.8hPa ESE 2.3mph /  3.7km/h 1.9mph /  3.1km/h 35% 0.00in /  0mm
15:59 101.1 °F /  38.4 °C 67.6 °F /  19.8 °C 29.91in /  1012.8hPa South 4.6mph /  7.4km/h 2.2mph /  3.5km/h 34% 0.00in /  0mm
16:04 100.7 °F /  38.2 °C 68.9 °F /  20.5 °C 29.91in /  1012.8hPa South 6.9mph /  11.1km/h 4.3mph /  6.9km/h 36% 0.00in /  0mm
16:09 100.9 °F /  38.3 °C 67.4 °F /  19.7 °C 29.91in /  1012.8hPa SSE 6.9mph /  11.1km/h 3.6mph /  5.8km/h 34% 0.00in /  0mm
16:14 101.1 °F /  38.4 °C 67.6 °F /  19.8 °C 29.91in /  1012.8hPa SE 6.9mph /  11.1km/h 1.9mph /  3.1km/h 34% 0.00in /  0mm
16:19 100.8 °F /  38.2 °C 67.3 °F /  19.6 °C 29.91in /  1012.8hPa SE 6.9mph /  11.1km/h 2.2mph /  3.5km/h 34% 0.00in /  0mm
16:24 100.2 °F /  37.9 °C 66.8 °F /  19.3 °C 29.90in /  1012.4hPa SSE 4.6mph /  7.4km/h 3.2mph /  5.1km/h 34% 0.00in /  0mm
16:29 100.0 °F /  37.8 °C 67.4 °F /  19.7 °C 29.90in /  1012.4hPa ESE 6.9mph /  11.1km/h 3.3mph /  5.3km/h 35% 0.00in /  0mm
16:34 99.9 °F /  37.7 °C 66.5 °F /  19.2 °C 29.90in /  1012.4hPa ESE 3.5mph /  5.6km/h 1.3mph /  2.1km/h 34% 0.00in /  0mm
16:39 100.1 °F /  37.8 °C 65.8 °F /  18.8 °C 29.90in /  1012.4hPa SSW 2.3mph /  3.7km/h 2.3mph /  3.7km/h 33% 0.00in /  0mm
16:44 100.4 °F /  38 °C 66.1 °F /  18.9 °C 29.90in /  1012.4hPa South 8.1mph /  13km/h 3.5mph /  5.6km/h 33% 0.00in /  0mm
16:49 100.0 °F /  37.8 °C 66.6 °F /  19.2 °C 29.90in /  1012.4hPa ESE 3.5mph /  5.6km/h 2.2mph /  3.5km/h 34% 0.00in /  0mm
16:54 100.3 °F /  37.9 °C 66.0 °F /  18.9 °C 29.90in /  1012.4hPa ESE 4.0mph /  6.4km/h 3.5mph /  5.6km/h 33% 0.00in /  0mm
16:59 99.5 °F /  37.5 °C 67.0 °F /  19.4 °C 29.90in /  1012.4hPa SSW 2.3mph /  3.7km/h 1.3mph /  2.1km/h 35% 0.00in /  0mm
17:04 99.3 °F /  37.4 °C 66.0 °F /  18.9 °C 29.89in /  1012.1hPa SSE 9.2mph /  14.8km/h 5.4mph /  8.7km/h 34% 0.00in /  0mm
17:09 99.1 °F /  37.3 °C 67.5 °F /  19.7 °C 29.89in /  1012.1hPa SE 2.3mph /  3.7km/h 1.2mph /  1.9km/h 36% 0.00in /  0mm
17:14 99.1 °F /  37.3 °C 67.5 °F /  19.7 °C 29.89in /  1012.1hPa ESE 8.1mph /  13km/h 2.4mph /  3.9km/h 36% 0.00in /  0mm
17:19 99.3 °F /  37.4 °C 66.0 °F /  18.9 °C 29.89in /  1012.1hPa SSE 4.6mph /  7.4km/h 3.4mph /  5.5km/h 34% 0.00in /  0mm
17:24 99.4 °F /  37.4 °C 66.9 °F /  19.4 °C 29.89in /  1012.1hPa South 2.3mph /  3.7km/h 2.4mph /  3.9km/h 35% 0.00in /  0mm
17:29 99.3 °F /  37.4 °C 66.8 °F /  19.3 °C 29.89in /  1012.1hPa SE 5.8mph /  9.3km/h 1.2mph /  1.9km/h 35% 0.00in /  0mm
17:34 99.4 °F /  37.4 °C 66.9 °F /  19.4 °C 29.89in /  1012.1hPa SE 3.5mph /  5.6km/h 1.5mph /  2.4km/h 35% 0.00in /  0mm
17:39 99.4 °F /  37.4 °C 67.7 °F /  19.8 °C 29.89in /  1012.1hPa SE 4.6mph /  7.4km/h 1.1mph /  1.8km/h 36% 0.00in /  0mm
17:44 99.1 °F /  37.3 °C 66.6 °F /  19.2 °C 29.89in /  1012.1hPa NNW 3.5mph /  5.6km/h 2.9mph /  4.7km/h 35% 0.00in /  0mm
17:49 99.1 °F /  37.3 °C 65.8 °F /  18.8 °C 29.88in /  1011.7hPa East 3.5mph /  5.6km/h 1.4mph /  2.3km/h 34% 0.00in /  0mm
17:54 99.2 °F /  37.3 °C 65.9 °F /  18.8 °C 29.88in /  1011.7hPa SSE 8.1mph /  13km/h 4.5mph /  7.2km/h 34% 0.00in /  0mm
17:59 99.2 °F /  37.3 °C 65.0 °F /  18.3 °C 29.88in /  1011.7hPa East 3.5mph /  5.6km/h 2.0mph /  3.2km/h 33% 0.00in /  0mm
18:04 99.4 °F /  37.4 °C 66.9 °F /  19.4 °C 29.88in /  1011.7hPa SSE 3.5mph /  5.6km/h 1.7mph /  2.7km/h 35% 0.00in /  0mm
18:09 98.8 °F /  37.1 °C 67.2 °F /  19.6 °C 29.88in /  1011.7hPa ESE 2.3mph /  3.7km/h 1.3mph /  2.1km/h 36% 0.00in /  0mm
18:14 98.0 °F /  36.7 °C 66.5 °F /  19.2 °C 29.88in /  1011.7hPa SSW 4.6mph /  7.4km/h 0.4mph /  0.6km/h 36% 0.00in /  0mm
18:19 97.8 °F /  36.6 °C 66.3 °F /  19.1 °C 29.87in /  1011.4hPa South 8.1mph /  13km/h 5.4mph /  8.7km/h 36% 0.00in /  0mm
18:24 97.6 °F /  36.4 °C 66.1 °F /  18.9 °C 29.87in /  1011.4hPa ESE 3.5mph /  5.6km/h 2.1mph /  3.4km/h 36% 0.00in /  0mm
18:29 97.1 °F /  36.2 °C 66.5 °F /  19.2 °C 29.87in /  1011.4hPa ESE 4.6mph /  7.4km/h 1.2mph /  1.9km/h 37% 0.00in /  0mm
18:34 97.0 °F /  36.1 °C 66.4 °F /  19.1 °C 29.87in /  1011.4hPa SE 11.5mph /  18.5km/h 1.9mph /  3.1km/h 37% 0.00in /  0mm
18:39 96.9 °F /  36.1 °C 66.3 °F /  19.1 °C 29.87in /  1011.4hPa SSW 7.0mph /  11.3km/h 3.1mph /  5km/h 37% 0.00in /  0mm
18:44 96.9 °F /  36.1 °C 67.1 °F /  19.5 °C 29.87in /  1011.4hPa SE 3.5mph /  5.6km/h 4.0mph /  6.4km/h 38% 0.00in /  0mm
18:49 96.9 °F /  36.1 °C 67.1 °F /  19.5 °C 29.87in /  1011.4hPa SSE 5.0mph /  8km/h 3.0mph /  4.8km/h 38% 0.00in /  0mm
18:54 96.4 °F /  35.8 °C 67.4 °F /  19.7 °C 29.87in /  1011.4hPa SE 9.2mph /  14.8km/h 4.6mph /  7.4km/h 39% 0.00in /  0mm
18:59 95.7 °F /  35.4 °C 67.5 °F /  19.7 °C 29.87in /  1011.4hPa SE 3.5mph /  5.6km/h 2.7mph /  4.3km/h 40% 0.00in /  0mm
19:04 95.4 °F /  35.2 °C 68.0 °F /  20 °C 29.87in /  1011.4hPa SSE 8.1mph /  13km/h 2.3mph /  3.7km/h 41% 0.00in /  0mm
19:09 95.3 °F /  35.2 °C 68.6 °F /  20.3 °C 29.87in /  1011.4hPa SSE 4.6mph /  7.4km/h 3.2mph /  5.1km/h 42% 0.00in /  0mm
19:14 94.9 °F /  34.9 °C 68.2 °F /  20.1 °C 29.87in /  1011.4hPa South 9.2mph /  14.8km/h 2.3mph /  3.7km/h 42% 0.00in /  0mm
19:19 94.7 °F /  34.8 °C 68.7 °F /  20.4 °C 29.87in /  1011.4hPa ENE 4.6mph /  7.4km/h 3.0mph /  4.8km/h 43% 0.00in /  0mm
19:24 94.6 °F /  34.8 °C 68.6 °F /  20.3 °C 29.87in /  1011.4hPa SE 8.1mph /  13km/h 2.2mph /  3.5km/h 43% 0.00in /  0mm
19:29 94.4 °F /  34.7 °C 69.1 °F /  20.6 °C 29.87in /  1011.4hPa South 5.0mph /  8km/h 2.4mph /  3.9km/h 44% 0.00in /  0mm
19:34 94.2 °F /  34.6 °C 68.9 °F /  20.5 °C 29.87in /  1011.4hPa South 3.5mph /  5.6km/h 2.6mph /  4.2km/h 44% 0.00in /  0mm
19:39 94.2 °F /  34.6 °C 68.9 °F /  20.5 °C 29.87in /  1011.4hPa SSW 4.6mph /  7.4km/h 1.3mph /  2.1km/h 44% 0.00in /  0mm
19:44 94.1 °F /  34.5 °C 68.9 °F /  20.5 °C 29.87in /  1011.4hPa SSW 5.8mph /  9.3km/h 2.6mph /  4.2km/h 44% 0.00in /  0mm
19:49 94.0 °F /  34.4 °C 69.4 °F /  20.8 °C 29.87in /  1011.4hPa SSW 11.5mph /  18.5km/h 4.0mph /  6.4km/h 45% 0.00in /  0mm
19:54 93.7 °F /  34.3 °C 69.8 °F /  21 °C 29.87in /  1011.4hPa SSW 6.0mph /  9.7km/h 4.1mph /  6.6km/h 46% 0.00in /  0mm
19:59 93.5 °F /  34.2 °C 69.6 °F /  20.9 °C 29.87in /  1011.4hPa ENE 3.5mph /  5.6km/h 2.5mph /  4km/h 46% 0.00in /  0mm
20:04 93.3 °F /  34.1 °C 70.1 °F /  21.2 °C 29.87in /  1011.4hPa South 6.9mph /  11.1km/h 1.7mph /  2.7km/h 47% 0.00in /  0mm
20:09 93.0 °F /  33.9 °C 70.4 °F /  21.3 °C 29.87in /  1011.4hPa South 4.6mph /  7.4km/h 5.2mph /  8.4km/h 48% 0.00in /  0mm
20:14 92.7 °F /  33.7 °C 70.1 °F /  21.2 °C 29.87in /  1011.4hPa SSW 3.5mph /  5.6km/h 1.2mph /  1.9km/h 48% 0.00in /  0mm
20:19 92.4 °F /  33.6 °C 70.5 °F /  21.4 °C 29.87in /  1011.4hPa SSW 8.1mph /  13km/h 1.9mph /  3.1km/h 49% 0.00in /  0mm
20:24 92.2 °F /  33.4 °C 70.3 °F /  21.3 °C 29.87in /  1011.4hPa SSE 4.6mph /  7.4km/h 2.2mph /  3.5km/h 49% 0.00in /  0mm
20:29 91.9 °F /  33.3 °C 70.0 °F /  21.1 °C 29.88in /  1011.7hPa SE 3.5mph /  5.6km/h 1.5mph /  2.4km/h 49% 0.00in /  0mm
20:34 91.7 °F /  33.2 °C 69.8 °F /  21 °C 29.88in /  1011.7hPa SE 3.5mph /  5.6km/h 2.5mph /  4km/h 49% 0.00in /  0mm
20:39 91.4 °F /  33 °C 69.6 °F /  20.9 °C 29.88in /  1011.7hPa SSE 5.8mph /  9.3km/h 3.9mph /  6.3km/h 49% 0.00in /  0mm
20:44 91.3 °F /  32.9 °C 69.5 °F /  20.8 °C 29.88in /  1011.7hPa South 6.9mph /  11.1km/h 3.4mph /  5.5km/h 49% 0.00in /  0mm
20:49 91.1 °F /  32.8 °C 69.3 °F /  20.7 °C 29.88in /  1011.7hPa SW 6.9mph /  11.1km/h 2.7mph /  4.3km/h 49% 0.00in /  0mm
20:54 90.9 °F /  32.7 °C 69.7 °F /  20.9 °C 29.89in /  1012.1hPa SSE 8.1mph /  13km/h 4.0mph /  6.4km/h 50% 0.00in /  0mm
20:58 90.7 °F /  32.6 °C 69.5 °F /  20.8 °C 29.89in /  1012.1hPa South 6.9mph /  11.1km/h 4.5mph /  7.2km/h 50% 0.00in /  0mm
21:04 90.5 °F /  32.5 °C 69.3 °F /  20.7 °C 29.89in /  1012.1hPa SSW 3.5mph /  5.6km/h 3.2mph /  5.1km/h 50% 0.00in /  0mm
21:09 90.3 °F /  32.4 °C 69.7 °F /  20.9 °C 29.89in /  1012.1hPa South 6.9mph /  11.1km/h 5.1mph /  8.2km/h 51% 0.00in /  0mm
21:14 90.1 °F /  32.3 °C 69.5 °F /  20.8 °C 29.89in /  1012.1hPa SSE 4.6mph /  7.4km/h 3.1mph /  5km/h 51% 0.00in /  0mm
21:19 89.8 °F /  32.1 °C 69.8 °F /  21 °C 29.89in /  1012.1hPa South 4.6mph /  7.4km/h 2.2mph /  3.5km/h 52% 0.00in /  0mm
21:24 89.5 °F /  31.9 °C 69.5 °F /  20.8 °C 29.89in /  1012.1hPa SSW 8.1mph /  13km/h 5.0mph /  8km/h 52% 0.00in /  0mm
21:29 89.4 °F /  31.9 °C 69.5 °F /  20.8 °C 29.89in /  1012.1hPa South 5.8mph /  9.3km/h 3.5mph /  5.6km/h 52% 0.00in /  0mm
21:34 89.2 °F /  31.8 °C 69.8 °F /  21 °C 29.90in /  1012.4hPa South 6.0mph /  9.7km/h 3.3mph /  5.3km/h 53% 0.00in /  0mm
21:39 89.0 °F /  31.7 °C 69.6 °F /  20.9 °C 29.90in /  1012.4hPa SSE 3.5mph /  5.6km/h 2.7mph /  4.3km/h 53% 0.00in /  0mm
21:44 88.8 °F /  31.6 °C 70.0 °F /  21.1 °C 29.90in /  1012.4hPa South 2.3mph /  3.7km/h 2.0mph /  3.2km/h 54% 0.00in /  0mm
21:49 88.7 °F /  31.5 °C 69.9 °F /  21.1 °C 29.90in /  1012.4hPa South 1.2mph /  1.9km/h 1.0mph /  1.6km/h 54% 0.00in /  0mm
21:54 88.4 °F /  31.3 °C 70.2 °F /  21.2 °C 29.91in /  1012.8hPa South 3.5mph /  5.6km/h 1.4mph /  2.3km/h 55% 0.00in /  0mm
21:59 88.3 °F /  31.3 °C 70.1 °F /  21.2 °C 29.91in /  1012.8hPa South 1.2mph /  1.9km/h 0.7mph /  1.1km/h 55% 0.00in /  0mm
22:04 88.0 °F /  31.1 °C 70.9 °F /  21.6 °C 29.92in /  1013.1hPa SSW 3.5mph /  5.6km/h 2.0mph /  3.2km/h 57% 0.00in /  0mm
22:09 87.7 °F /  30.9 °C 71.1 °F /  21.7 °C 29.91in /  1012.8hPa SSW 2.3mph /  3.7km/h 2.1mph /  3.4km/h 58% 0.00in /  0mm
22:14 87.4 °F /  30.8 °C 71.3 °F /  21.8 °C 29.91in /  1012.8hPa SSE 1.2mph /  1.9km/h   59% 0.00in /  0mm
22:19 87.2 °F /  30.7 °C 71.1 °F /  21.7 °C 29.91in /  1012.8hPa SSE 2.3mph /  3.7km/h 0.6mph /  1km/h 59% 0.00in /  0mm
22:23 86.9 °F /  30.5 °C 70.8 °F /  21.6 °C 29.91in /  1012.8hPa SSE 2.3mph /  3.7km/h 1.2mph /  1.9km/h 59% 0.00in /  0mm
22:29 86.6 °F /  30.3 °C 71.1 °F /  21.7 °C 29.91in /  1012.8hPa SSW 1.2mph /  1.9km/h 1.3mph /  2.1km/h 60% 0.00in /  0mm
22:34 86.5 °F /  30.3 °C 71.5 °F /  21.9 °C 29.92in /  1013.1hPa Calm     61% 0.00in /  0mm
22:39 86.2 °F /  30.1 °C 71.2 °F /  21.8 °C 29.92in /  1013.1hPa Calm     61% 0.00in /  0mm
22:44 86.0 °F /  30 °C 71.0 °F /  21.7 °C 29.91in /  1012.8hPa Calm     61% 0.00in /  0mm
22:49 85.8 °F /  29.9 °C 71.3 °F /  21.8 °C 29.91in /  1012.8hPa Calm     62% 0.00in /  0mm
22:54 85.6 °F /  29.8 °C 71.1 °F /  21.7 °C 29.91in /  1012.8hPa Calm     62% 0.00in /  0mm
22:59 85.4 °F /  29.7 °C 71.4 °F /  21.9 °C 29.92in /  1013.1hPa Calm     63% 0.00in /  0mm
23:04 85.2 °F /  29.6 °C 71.2 °F /  21.8 °C 29.92in /  1013.1hPa Calm     63% 0.00in /  0mm
23:09 85.0 °F /  29.4 °C 71.0 °F /  21.7 °C 29.92in /  1013.1hPa South 1.2mph /  1.9km/h 0.1mph /  0.2km/h 63% 0.00in /  0mm
23:14 84.8 °F /  29.3 °C 70.8 °F /  21.6 °C 29.91in /  1012.8hPa South 1.2mph /  1.9km/h 0.4mph /  0.6km/h 63% 0.00in /  0mm
23:19 84.7 °F /  29.3 °C 70.7 °F /  21.5 °C 29.92in /  1013.1hPa South 1.2mph /  1.9km/h 0.6mph /  1km/h 63% 0.00in /  0mm
23:24 84.6 °F /  29.2 °C 70.6 °F /  21.4 °C 29.92in /  1013.1hPa Calm   0.6mph /  1km/h 63% 0.00in /  0mm
23:29 84.5 °F /  29.2 °C 70.5 °F /  21.4 °C 29.92in /  1013.1hPa SSE 2.3mph /  3.7km/h 0.2mph /  0.3km/h 63% 0.00in /  0mm
23:34 84.4 °F /  29.1 °C 70.4 °F /  21.3 °C 29.91in /  1012.8hPa SE 1.2mph /  1.9km/h 0.5mph /  0.8km/h 63% 0.00in /  0mm
23:39 84.3 °F /  29.1 °C 70.3 °F /  21.3 °C 29.92in /  1013.1hPa SE 2.3mph /  3.7km/h 1.1mph /  1.8km/h 63% 0.00in /  0mm
23:44 84.3 °F /  29.1 °C 70.3 °F /  21.3 °C 29.92in /  1013.1hPa SE 2.3mph /  3.7km/h 0.3mph /  0.5km/h 63% 0.00in /  0mm
23:49 84.2 °F /  29 °C 70.2 °F /  21.2 °C 29.92in /  1013.1hPa Calm     63% 0.00in /  0mm
23:54 84.2 °F /  29 °C 70.2 °F /  21.2 °C 29.91in /  1012.8hPa Calm     63% 0.00in /  0mm
23:59 84.2 °F /  29 °C 70.2 °F /  21.2 °C 29.91in /  1012.8hPa Calm     63% 0.00in /  0mm
Live Lenexa Weather
Compliments of Weather Underground - 1.75 mb